| time (UTC) | temp C | wind direction | speed KPH | gust KPH | rain 1hr cm | rain 24hr cm | rain mn cm | humidity % | barometer mb |
| 20260502234551 | 17 | 70 | 9.7 | 16.1 | 0.00 | 0.00 | 0.00 | 33 | 1015.7 |
| 20260502233042 | 18 | 17 | 9.7 | 19.3 | 0.00 | 0.00 | 0.00 | 33 | 1016.0 |
| 20260502231544 | 17 | 46 | 6.4 | 12.9 | 0.00 | 0.00 | 0.00 | 33 | 1016.0 |
| 20260502230047 | 17 | 88 | 3.2 | 11.3 | 0.00 | 0.00 | 0.00 | 34 | 1016.2 |
| 20260502224545 | 18 | 64 | 6.4 | 16.1 | 0.00 | 0.00 | 0.00 | 33 | 1016.4 |
| 20260502223042 | 19 | 110 | 8.0 | 14.5 | 0.00 | 0.00 | 0.00 | 32 | 1016.4 |
| 20260502221543 | 18 | 114 | 3.2 | 6.4 | 0.00 | 0.00 | 0.00 | 34 | 1016.6 |
| 20260502220053 | 17 | 20 | 1.6 | 11.3 | 0.00 | 0.00 | 0.00 | 34 | 1017.0 |
| 20260502214545 | 18 | 206 | 8.0 | 14.5 | 0.00 | 0.00 | 0.00 | 33 | 1017.3 |
| 20260502213045 | 18 | 151 | 6.4 | 19.3 | 0.00 | 0.00 | 0.00 | 33 | 1017.3 |
| 20260502211547 | 18 | 153 | 6.4 | 16.1 | 0.00 | 0.00 | 0.00 | 34 | 1017.5 |
| 20260502210054 | 18 | 223 | 6.4 | 22.5 | 0.00 | 0.00 | 0.00 | 34 | 1017.6 |
| 20260502204542 | 18 | 226 | 8.0 | 17.7 | 0.00 | 0.00 | 0.00 | 35 | 1017.9 |
| 20260502203101 | 17 | 189 | 6.4 | 16.1 | 0.00 | 0.00 | 0.00 | 36 | 1018.2 |
| 20260502201547 | 17 | 243 | 6.4 | 16.1 | 0.00 | 0.00 | 0.00 | 37 | 1018.5 |
| 20260502200045 | 17 | 252 | 3.2 | 12.9 | 0.00 | 0.00 | 0.00 | 37 | 1018.6 |
| 20260502194550 | 16 | 328 | 4.8 | 14.5 | 0.00 | 0.00 | 0.00 | 40 | 1018.7 |
| 20260502193053 | 16 | 249 | 1.6 | 14.5 | 0.00 | 0.00 | 0.00 | 39 | 1018.9 |
| 20260502191543 | 16 | 179 | 6.4 | 19.3 | 0.00 | 0.00 | 0.00 | 40 | 1019.0 |
| 20260502190047 | 16 | 264 | 6.4 | 14.5 | 0.00 | 0.00 | 0.00 | 41 | 1019.1 |
| 20260502184546 | 16 | 269 | 6.4 | 11.3 | 0.00 | 0.00 | 0.00 | 40 | 1019.5 |
| 20260502183053 | 15 | 129 | 8.0 | 16.1 | 0.00 | 0.00 | 0.00 | 42 | 1019.8 |
| 20260502181540 | 15 | 78 | 9.7 | 17.7 | 0.00 | 0.00 | 0.00 | 41 | 1019.9 |
| 20260502163105 | 13 | 45 | 8.0 | 25.7 | 0.00 | 0.00 | 0.00 | 46 | 1020.2 |
| 20260502161545 | 13 | 74 | 8.0 | 24.1 | 0.00 | 0.00 | 0.00 | 46 | 1020.3 |
| 20260502151544 | 12 | 29 | 14.5 | 20.9 | 0.00 | 0.00 | 0.00 | 50 | 1020.4 |
| 20260502123057 | 9 | 304 | 30.6 | 40.2 | 0.00 | 0.00 | 0.00 | 60 | 1018.8 |
| 20260502121546 | 9 | 316 | 32.2 | 37.0 | 0.00 | 0.00 | 0.00 | 60 | 1018.8 |
| 20260502114548 | 9 | 311 | 33.8 | 43.5 | 0.00 | 0.00 | 0.00 | 59 | 1018.5 |
| 20260502113042 | 9 | 309 | 32.2 | 43.5 | 0.00 | 0.00 | 0.00 | 59 | 1018.5 |
| 20260502111549 | 9 | 312 | 29.0 | 43.5 | 0.00 | 0.00 | 0.00 | 59 | 1018.5 |
| 20260502110044 | 9 | 304 | 35.4 | 46.7 | 0.00 | 0.00 | 0.00 | 58 | 1018.3 |
| 20260502104545 | 9 | 307 | 33.8 | 46.7 | 0.00 | 0.00 | 0.00 | 59 | 1018.2 |
| 20260502103044 | 9 | 312 | 33.8 | 41.8 | 0.00 | 0.00 | 0.00 | 59 | 1018.1 |
| 20260502101541 | 9 | 302 | 27.4 | 40.2 | 0.00 | 0.00 | 0.00 | 59 | 1018.1 |
| 20260502070052 | 7 | 289 | 6.4 | 11.3 | 0.00 | 0.00 | 0.00 | 49 | 1016.6 |
| 20260502064547 | 8 | 280 | 8.0 | 11.3 | 0.00 | 0.00 | 0.00 | 49 | 1016.5 |
| 20260502063051 | 8 | 295 | 9.7 | 12.9 | 0.00 | 0.00 | 0.00 | 47 | 1016.5 |
| 20260502061546 | 8 | 262 | 8.0 | 11.3 | 0.00 | 0.00 | 0.00 | 46 | 1016.4 |
| 20260502060054 | 8 | 275 | 8.0 | 11.3 | 0.00 | 0.00 | 0.00 | 47 | 1016.4 |
| 20260502054552 | 10 | 281 | 6.4 | 11.3 | 0.00 | 0.00 | 0.00 | 41 | 1016.4 |
| 20260502053043 | 10 | 271 | 6.4 | 8.0 | 0.00 | 0.00 | 0.00 | 40 | 1016.4 |
| 20260502051550 | 10 | 291 | 6.4 | 9.7 | 0.00 | 0.00 | 0.00 | 38 | 1016.4 |
| 20260502050046 | 10 | 269 | 4.8 | 9.7 | 0.00 | 0.00 | 0.00 | 37 | 1016.3 |
| 20260502044553 | 10 | 278 | 8.0 | 12.9 | 0.00 | 0.00 | 0.00 | 40 | 1016.3 |
| 20260502043050 | 11 | 277 | 9.7 | 17.7 | 0.00 | 0.00 | 0.00 | 37 | 1016.1 |
| 20260502041548 | 11 | 288 | 11.3 | 14.5 | 0.00 | 0.00 | 0.00 | 34 | 1016.2 |
| 20260502040045 | 11 | 295 | 8.0 | 14.5 | 0.00 | 0.00 | 0.00 | 36 | 1016.2 |
| 20260502034547 | 10 | 262 | 8.0 | 8.0 | 0.00 | 0.00 | 0.00 | 38 | 1016.0 |
| 20260502033045 | 11 | 277 | 6.4 | 16.1 | 0.00 | 0.00 | 0.00 | 38 | 1016.0 |
| 20260502031550 | 12 | 271 | 9.7 | 14.5 | 0.00 | 0.00 | 0.00 | 34 | 1015.9 |
| 20260502030044 | 12 | 269 | 6.4 | 11.3 | 0.00 | 0.00 | 0.00 | 33 | 1015.5 |
| 20260502024543 | 13 | 274 | 4.8 | 11.3 | 0.00 | 0.00 | 0.00 | 31 | 1015.4 |
| 20260502023043 | 15 | 287 | 6.4 | 12.9 | 0.00 | 0.00 | 0.00 | 28 | 1015.3 |
| 20260502021548 | 15 | 269 | 4.8 | 11.3 | 0.00 | 0.00 | 0.00 | 30 | 1015.2 |
| 20260502020044 | 15 | 281 | 4.8 | 8.0 | 0.00 | 0.00 | 0.00 | 33 | 1015.2 |
| 20260502014554 | 17 | 323 | 8.0 | 12.9 | 0.00 | 0.00 | 0.00 | 28 | 1015.1 |
| 20260502013041 | 19 | 306 | 8.0 | 12.9 | 0.00 | 0.00 | 0.00 | 25 | 1015.2 |
| 20260502011546 | 20 | 309 | 6.4 | 17.7 | 0.00 | 0.00 | 0.00 | 22 | 1015.1 |
| 20260502010042 | 22 | 292 | 12.9 | 20.9 | 0.00 | 0.00 | 0.00 | 16 | 1015.0 |
| 20260502004545 | 22 | 311 | 11.3 | 17.7 | 0.00 | 0.00 | 0.00 | 17 | 1015.0 |
| 20260502003040 | 22 | 323 | 9.7 | 17.7 | 0.00 | 0.00 | 0.00 | 16 | 1015.0 |
| 20260502001546 | 22 | 293 | 8.0 | 12.9 | 0.00 | 0.00 | 0.00 | 15 | 1014.9 |
| 20260502000054 | 22 | 356 | 8.0 | 12.9 | 0.00 | 0.00 | 0.00 | 17 | 1015.1 |